Time,TemperatureF,DewpointF,PressureIn,WindDirection,WindDirectionDegrees,WindSpeedMPH,WindSpeedGustMPH,Humidity,HourlyPrecipIn,Conditions,Clouds,dailyrainin,SoftwareType,DateUTC
2013-04-05 00:02:00,29.8,22.5,29.85,NNW,338,0.0,0.0,74,0.00,,,0.00,WUHU216HW,2013-04-05 05:02:00,
2013-04-05 00:07:00,29.8,22.5,29.85,WNW,293,0.0,0.0,74,0.00,,,0.00,WUHU216HW,2013-04-05 05:07:00,
2013-04-05 00:12:00,30.0,22.6,29.85,WNW,293,0.0,0.0,74,0.00,,,0.00,WUHU216HW,2013-04-05 05:12:00,
2013-04-05 00:17:00,30.0,22.6,29.85,WNW,293,0.0,0.0,74,0.00,,,0.00,WUHU216HW,2013-04-05 05:17:00,
2013-04-05 00:22:00,29.8,22.8,29.85,WNW,293,0.0,0.0,75,0.00,,,0.00,WUHU216HW,2013-04-05 05:22:00,
2013-04-05 00:27:00,29.6,22.6,29.86,WNW,293,0.0,0.0,75,0.00,,,0.00,WUHU216HW,2013-04-05 05:27:00,
2013-04-05 00:32:00,29.4,22.4,29.86,NNW,338,0.0,0.0,75,0.00,,,0.00,WUHU216HW,2013-04-05 05:32:00,
2013-04-05 00:38:00,29.4,22.8,29.86,NNW,338,0.0,0.0,76,0.00,,,0.00,WUHU216HW,2013-04-05 05:38:00,
2013-04-05 00:43:00,29.3,22.6,29.86,NNW,338,0.0,0.0,76,0.00,,,0.00,WUHU216HW,2013-04-05 05:43:00,
2013-04-05 00:48:00,29.1,22.4,29.87,North,0,0.0,0.0,76,0.00,,,0.00,WUHU216HW,2013-04-05 05:48:00,
2013-04-05 00:53:00,29.3,22.6,29.87,North,0,0.0,0.0,76,0.00,,,0.00,WUHU216HW,2013-04-05 05:53:00,
2013-04-05 00:58:00,29.1,22.4,29.87,North,0,0.0,0.0,76,0.00,,,0.00,WUHU216HW,2013-04-05 05:58:00,
2013-04-05 01:03:00,29.1,22.4,29.88,North,0,0.0,0.0,76,0.00,,,0.00,WUHU216HW,2013-04-05 06:03:00,
2013-04-05 01:08:00,28.9,22.2,29.88,North,0,0.0,0.0,76,0.00,,,0.00,WUHU216HW,2013-04-05 06:08:00,
2013-04-05 01:13:00,28.7,22.1,29.88,North,0,0.0,0.0,76,0.00,,,0.00,WUHU216HW,2013-04-05 06:13:00,
2013-04-05 01:18:00,28.7,22.4,29.88,North,0,0.0,0.0,77,0.00,,,0.00,WUHU216HW,2013-04-05 06:18:00,
2013-04-05 01:23:00,28.5,22.2,29.88,North,0,0.0,0.0,77,0.00,,,0.00,WUHU216HW,2013-04-05 06:23:00,
2013-04-05 01:28:00,28.5,22.2,29.88,North,0,0.0,0.0,77,0.00,,,0.00,WUHU216HW,2013-04-05 06:28:00,
2013-04-05 01:33:00,28.2,21.9,29.88,North,0,0.0,0.0,77,0.00,,,0.00,WUHU216HW,2013-04-05 06:33:00,
2013-04-05 01:38:00,28.2,21.9,29.89,North,0,0.0,0.0,77,0.00,,,0.00,WUHU216HW,2013-04-05 06:38:00,
2013-04-05 01:44:00,28.0,21.7,29.89,North,0,0.0,0.0,77,0.00,,,0.00,WUHU216HW,2013-04-05 06:44:00,
2013-04-05 01:49:00,27.6,21.3,29.89,North,0,0.0,0.0,77,0.00,,,0.00,WUHU216HW,2013-04-05 06:49:00,
2013-04-05 01:54:00,27.3,21.0,29.88,North,0,0.0,0.0,77,0.00,,,0.00,WUHU216HW,2013-04-05 06:54:00,
2013-04-05 01:59:00,27.1,20.8,29.88,North,0,0.0,0.0,77,0.00,,,0.00,WUHU216HW,2013-04-05 06:59:00,
2013-04-05 02:09:00,27.1,21.1,29.89,North,0,0.0,0.0,78,0.00,,,0.00,WUHU216HW,2013-04-05 07:09:00,
2013-04-05 02:14:00,27.1,21.1,29.89,North,0,0.0,0.0,78,0.00,,,0.00,WUHU216HW,2013-04-05 07:14:00,
2013-04-05 02:19:00,26.9,20.9,29.89,North,0,0.0,0.0,78,0.00,,,0.00,WUHU216HW,2013-04-05 07:19:00,
2013-04-05 02:25:00,26.9,20.9,29.89,North,0,0.0,0.0,78,0.00,,,0.00,WUHU216HW,2013-04-05 07:25:00,
2013-04-05 02:30:00,26.9,20.9,29.89,North,0,0.0,0.0,78,0.00,,,0.00,WUHU216HW,2013-04-05 07:30:00,
2013-04-05 02:35:00,26.7,21.0,29.89,North,0,0.0,0.0,79,0.00,,,0.00,WUHU216HW,2013-04-05 07:35:00,
2013-04-05 02:40:00,26.4,20.7,29.89,North,0,0.0,0.0,79,0.00,,,0.00,WUHU216HW,2013-04-05 07:40:00,
2013-04-05 02:45:00,26.4,20.5,29.90,North,0,0.0,0.0,79,0.00,,,0.00,WUHU216HW,2013-04-05 07:45:00,
2013-04-05 02:50:00,26.0,20.3,29.90,North,0,0.0,0.0,79,0.00,,,0.00,WUHU216HW,2013-04-05 07:50:00,
2013-04-05 02:55:00,25.7,20.0,29.90,North,0,0.0,0.0,79,0.00,,,0.00,WUHU216HW,2013-04-05 07:55:00,
2013-04-05 03:00:00,25.7,20.0,29.90,North,0,0.0,0.0,79,0.00,,,0.00,WUHU216HW,2013-04-05 08:00:00,
2013-04-05 03:05:00,25.7,20.0,29.90,North,0,0.0,0.0,79,0.00,,,0.00,WUHU216HW,2013-04-05 08:05:00,
2013-04-05 03:10:00,25.8,20.5,29.90,North,0,0.0,0.0,80,0.00,,,0.00,WUHU216HW,2013-04-05 08:10:00,
2013-04-05 03:15:00,25.8,20.5,29.90,North,0,0.0,0.0,80,0.00,,,0.00,WUHU216HW,2013-04-05 08:15:00,
2013-04-05 03:21:00,25.7,20.3,29.90,North,0,0.0,0.0,80,0.00,,,0.00,WUHU216HW,2013-04-05 08:21:00,
2013-04-05 03:26:00,25.7,20.3,29.91,North,0,0.0,0.0,80,0.00,,,0.00,WUHU216HW,2013-04-05 08:26:00,
2013-04-05 03:31:00,25.7,20.3,29.91,North,0,0.0,0.0,80,0.00,,,0.00,WUHU216HW,2013-04-05 08:31:00,
2013-04-05 03:36:00,25.5,20.2,29.91,North,0,0.0,0.0,80,0.00,,,0.00,WUHU216HW,2013-04-05 08:36:00,
2013-04-05 03:42:00,25.5,20.2,29.91,North,0,0.0,0.0,80,0.00,,,0.00,WUHU216HW,2013-04-05 08:42:00,
2013-04-05 03:47:00,25.3,20.0,29.92,North,0,0.0,0.0,80,0.00,,,0.00,WUHU216HW,2013-04-05 08:47:00,
2013-04-05 03:52:00,25.3,20.0,29.92,North,0,0.0,0.0,80,0.00,,,0.00,WUHU216HW,2013-04-05 08:52:00,
2013-04-05 03:57:00,25.1,19.9,29.92,North,0,0.0,0.0,80,0.00,,,0.00,WUHU216HW,2013-04-05 08:57:00,
2013-04-05 04:02:00,25.3,20.0,29.92,North,0,0.0,0.0,80,0.00,,,0.00,WUHU216HW,2013-04-05 09:02:00,
2013-04-05 04:07:00,25.3,20.0,29.92,North,0,0.0,0.0,80,0.00,,,0.00,WUHU216HW,2013-04-05 09:07:00,
2013-04-05 04:12:00,25.1,19.9,29.92,North,0,0.0,0.0,80,0.00,,,0.00,WUHU216HW,2013-04-05 09:12:00,
2013-04-05 04:17:00,25.1,20.1,29.92,North,0,0.0,0.0,81,0.00,,,0.00,WUHU216HW,2013-04-05 09:17:00,
2013-04-05 04:22:00,24.9,20.0,29.93,North,0,0.0,0.0,81,0.00,,,0.00,WUHU216HW,2013-04-05 09:22:00,
2013-04-05 04:27:00,24.6,19.6,29.93,North,0,0.0,0.0,81,0.00,,,0.00,WUHU216HW,2013-04-05 09:27:00,
2013-04-05 04:32:00,24.6,19.6,29.93,North,0,0.0,0.0,81,0.00,,,0.00,WUHU216HW,2013-04-05 09:32:00,
2013-04-05 04:38:00,24.9,20.0,29.93,North,0,0.0,0.0,81,0.00,,,0.00,WUHU216HW,2013-04-05 09:38:00,
2013-04-05 04:43:00,24.9,20.0,29.93,North,0,0.0,0.0,81,0.00,,,0.00,WUHU216HW,2013-04-05 09:43:00,
2013-04-05 04:48:00,24.9,20.0,29.93,North,0,0.0,0.0,81,0.00,,,0.00,WUHU216HW,2013-04-05 09:48:00,
2013-04-05 04:53:00,24.6,19.6,29.94,North,0,0.0,0.0,81,0.00,,,0.00,WUHU216HW,2013-04-05 09:53:00,
2013-04-05 04:58:00,24.6,19.6,29.94,North,0,0.0,0.0,81,0.00,,,0.00,WUHU216HW,2013-04-05 09:58:00,
2013-04-05 05:03:00,24.6,19.6,29.94,North,0,0.0,0.0,81,0.00,,,0.00,WUHU216HW,2013-04-05 10:03:00,
2013-04-05 05:08:00,24.4,19.4,29.94,North,0,0.0,0.0,81,0.00,,,0.00,WUHU216HW,2013-04-05 10:08:00,
2013-04-05 05:13:00,24.4,19.4,29.95,North,0,0.0,0.0,81,0.00,,,0.00,WUHU216HW,2013-04-05 10:13:00,
2013-04-05 05:18:00,24.0,19.1,29.95,North,0,0.0,0.0,81,0.00,,,0.00,WUHU216HW,2013-04-05 10:18:00,
2013-04-05 05:23:00,24.0,19.1,29.95,North,0,0.0,0.0,81,0.00,,,0.00,WUHU216HW,2013-04-05 10:23:00,
2013-04-05 05:28:00,23.9,18.9,29.95,North,0,0.0,0.0,81,0.00,,,0.00,WUHU216HW,2013-04-05 10:28:00,
2013-04-05 05:33:00,23.9,19.2,29.95,North,0,0.0,0.0,82,0.00,,,0.00,WUHU216HW,2013-04-05 10:33:00,
2013-04-05 05:39:00,23.7,19.2,29.95,North,0,0.0,0.0,82,0.00,,,0.00,WUHU216HW,2013-04-05 10:39:00,
2013-04-05 05:44:00,23.7,18.7,29.96,North,0,0.0,0.0,81,0.00,,,0.00,WUHU216HW,2013-04-05 10:44:00,
2013-04-05 05:49:00,23.7,19.0,29.96,North,0,0.0,0.0,82,0.00,,,0.00,WUHU216HW,2013-04-05 10:49:00,
2013-04-05 05:54:00,24.0,19.4,29.96,North,0,0.0,0.0,82,0.00,,,0.00,WUHU216HW,2013-04-05 10:54:00,
2013-04-05 05:59:00,24.6,20.2,29.96,North,0,0.0,0.0,83,0.00,,,0.00,WUHU216HW,2013-04-05 10:59:00,
2013-04-05 06:04:00,24.6,20.2,29.97,North,0,0.0,0.0,83,0.00,,,0.00,WUHU216HW,2013-04-05 11:04:00,
2013-04-05 06:10:00,24.4,19.7,29.97,North,0,0.0,0.0,82,0.00,,,0.00,WUHU216HW,2013-04-05 11:10:00,
2013-04-05 06:15:00,24.2,19.7,29.97,North,0,0.0,0.0,82,0.00,,,0.00,WUHU216HW,2013-04-05 11:15:00,
2013-04-05 06:20:00,24.0,19.4,29.98,North,0,0.0,0.0,82,0.00,,,0.00,WUHU216HW,2013-04-05 11:20:00,
2013-04-05 06:25:00,23.9,19.2,29.98,North,0,0.0,0.0,82,0.00,,,0.00,WUHU216HW,2013-04-05 11:25:00,
2013-04-05 06:30:00,23.9,19.4,29.98,North,0,0.0,0.0,83,0.00,,,0.00,WUHU216HW,2013-04-05 11:30:00,
2013-04-05 06:35:00,23.7,19.0,29.98,North,0,0.0,0.0,82,0.00,,,0.00,WUHU216HW,2013-04-05 11:35:00,
2013-04-05 06:40:00,23.7,19.3,29.99,North,0,0.0,0.0,83,0.00,,,0.00,WUHU216HW,2013-04-05 11:40:00,
2013-04-05 06:45:00,23.9,19.4,29.99,NNE,23,0.0,0.0,83,0.00,,,0.00,WUHU216HW,2013-04-05 11:45:00,
2013-04-05 06:50:00,24.9,20.8,29.99,NNE,23,0.0,0.0,84,0.00,,,0.00,WUHU216HW,2013-04-05 11:50:00,
2013-04-05 06:55:00,26.2,22.5,29.99,North,0,0.0,0.0,86,0.00,,,0.00,WUHU216HW,2013-04-05 11:55:00,
2013-04-05 07:00:00,27.1,23.4,29.99,NNE,23,0.0,0.0,86,0.00,,,0.00,WUHU216HW,2013-04-05 12:00:00,
2013-04-05 07:05:00,28.5,25.1,29.99,North,0,0.0,0.0,87,0.00,,,0.00,WUHU216HW,2013-04-05 12:05:00,
2013-04-05 07:10:00,29.8,26.4,30.00,North,0,3.3,3.3,87,0.00,,,0.00,WUHU216HW,2013-04-05 12:10:00,
2013-04-05 07:15:00,30.7,27.0,30.00,NNE,23,0.0,3.3,86,0.00,,,0.00,WUHU216HW,2013-04-05 12:15:00,
2013-04-05 07:20:00,31.2,27.3,30.00,North,0,0.0,3.3,85,0.00,,,0.00,WUHU216HW,2013-04-05 12:20:00,
2013-04-05 07:25:00,31.2,26.4,30.01,North,0,0.6,0.6,83,0.00,,,0.00,WUHU216HW,2013-04-05 12:25:00,
2013-04-05 07:30:00,30.9,25.8,30.01,NE,45,4.6,4.6,81,0.00,,,0.00,WUHU216HW,2013-04-05 12:30:00,
2013-04-05 07:35:00,30.7,25.3,30.01,NE,45,0.0,4.6,80,0.00,,,0.00,WUHU216HW,2013-04-05 12:35:00,
2013-04-05 07:40:00,30.5,24.8,30.01,NNE,23,3.8,5.3,79,0.00,,,0.00,WUHU216HW,2013-04-05 12:40:00,
2013-04-05 07:46:00,30.7,24.6,30.01,NNE,23,5.8,5.8,78,0.00,,,0.00,WUHU216HW,2013-04-05 12:46:00,
2013-04-05 07:51:00,30.9,24.5,30.01,NE,45,4.6,5.8,77,0.00,,,0.00,WUHU216HW,2013-04-05 12:51:00,
2013-04-05 07:56:00,31.2,24.5,30.01,NE,45,4.2,4.6,76,0.00,,,0.00,WUHU216HW,2013-04-05 12:56:00,
2013-04-05 08:01:00,31.6,24.6,30.02,East,90,4.4,4.4,75,0.00,,,0.00,WUHU216HW,2013-04-05 13:01:00,
2013-04-05 08:06:00,31.8,24.8,30.02,NE,45,4.6,4.6,75,0.00,,,0.00,WUHU216HW,2013-04-05 13:06:00,
2013-04-05 08:11:00,32.0,24.6,30.02,NE,45,2.2,6.4,74,0.00,,,0.00,WUHU216HW,2013-04-05 13:11:00,
2013-04-05 08:16:00,32.1,24.8,30.03,East,90,6.2,6.4,74,0.00,,,0.00,WUHU216HW,2013-04-05 13:16:00,
2013-04-05 08:22:00,32.5,24.8,30.02,NE,45,4.8,6.2,73,0.00,,,0.00,WUHU216HW,2013-04-05 13:22:00,
2013-04-05 08:27:00,32.9,25.1,30.02,NE,45,7.1,7.1,73,0.00,,,0.00,WUHU216HW,2013-04-05 13:27:00,
2013-04-05 08:32:00,33.0,24.9,30.03,ENE,68,3.5,7.1,72,0.00,,,0.00,WUHU216HW,2013-04-05 13:32:00,
2013-04-05 08:37:00,33.4,24.9,30.03,NE,45,1.1,6.9,71,0.00,,,0.00,WUHU216HW,2013-04-05 13:37:00,
2013-04-05 08:42:00,33.6,25.1,30.03,East,90,6.9,6.9,71,0.00,,,0.00,WUHU216HW,2013-04-05 13:42:00,
2013-04-05 08:47:00,33.9,25.4,30.03,East,90,4.4,7.6,71,0.00,,,0.00,WUHU216HW,2013-04-05 13:47:00,
2013-04-05 08:52:00,34.1,25.3,30.03,East,90,6.9,7.6,70,0.00,,,0.00,WUHU216HW,2013-04-05 13:52:00,
2013-04-05 08:57:00,34.1,24.9,30.03,ENE,68,5.1,7.6,69,0.00,,,0.00,WUHU216HW,2013-04-05 13:57:00,
2013-04-05 09:02:00,34.3,25.1,30.03,East,90,7.8,7.8,69,0.00,,,0.00,WUHU216HW,2013-04-05 14:02:00,
2013-04-05 09:07:00,34.3,24.4,30.03,NE,45,7.4,9.3,67,0.00,,,0.00,WUHU216HW,2013-04-05 14:07:00,
2013-04-05 09:12:00,34.3,24.0,30.03,East,90,7.1,9.3,66,0.00,,,0.00,WUHU216HW,2013-04-05 14:12:00,
2013-04-05 09:18:00,34.7,24.4,30.03,NE,41,6.2,7.3,66,0.00,,,0.00,WUHU216HW,2013-04-05 14:18:00,
2013-04-05 09:23:00,34.8,23.9,30.03,NE,45,5.8,7.3,64,0.00,,,0.00,WUHU216HW,2013-04-05 14:23:00,
2013-04-05 09:28:00,35.2,24.2,30.03,NE,45,4.0,5.8,64,0.00,,,0.00,WUHU216HW,2013-04-05 14:28:00,
2013-04-05 09:33:00,35.2,24.2,30.04,ENE,68,2.4,8.0,64,0.00,,,0.00,WUHU216HW,2013-04-05 14:33:00,
2013-04-05 09:39:00,35.7,24.4,30.04,ENE,68,2.9,8.0,63,0.00,,,0.00,WUHU216HW,2013-04-05 14:39:00,
2013-04-05 09:44:00,36.1,24.7,30.04,ENE,68,6.7,7.8,63,0.00,,,0.00,WUHU216HW,2013-04-05 14:44:00,
2013-04-05 09:49:00,36.1,24.0,30.04,ENE,68,7.1,7.8,61,0.00,,,0.00,WUHU216HW,2013-04-05 14:49:00,
2013-04-05 09:54:00,36.3,24.5,30.04,East,81,4.5,7.6,62,0.00,,,0.00,WUHU216HW,2013-04-05 14:54:00,
2013-04-05 09:59:00,36.6,24.5,30.04,ENE,78,3.7,7.6,61,0.00,,,0.00,WUHU216HW,2013-04-05 14:59:00,
2013-04-05 10:04:00,37.0,24.8,30.05,East,90,4.4,7.8,61,0.00,,,0.00,WUHU216HW,2013-04-05 15:04:00,
2013-04-05 10:09:00,37.2,24.9,30.04,East,90,2.4,7.8,60,0.00,,,0.00,WUHU216HW,2013-04-05 15:09:00,
2013-04-05 10:15:00,37.5,24.9,30.05,East,90,3.3,7.3,60,0.00,,,0.00,WUHU216HW,2013-04-05 15:15:00,
2013-04-05 10:20:00,37.5,24.9,30.04,East,90,6.3,7.3,60,0.00,,,0.00,WUHU216HW,2013-04-05 15:20:00,
2013-04-05 10:25:00,37.9,25.2,30.04,East,90,9.1,9.1,60,0.00,,,0.00,WUHU216HW,2013-04-05 15:25:00,
2013-04-05 10:30:00,38.1,24.8,30.04,East,90,4.0,9.1,59,0.00,,,0.00,WUHU216HW,2013-04-05 15:30:00,
2013-04-05 10:35:00,38.1,23.9,30.05,NNE,23,4.1,5.3,58,0.00,,,0.00,WUHU216HW,2013-04-05 15:35:00,
2013-04-05 10:40:00,37.9,23.9,30.05,NNE,23,5.5,5.5,57,0.00,,,0.00,WUHU216HW,2013-04-05 15:40:00,
2013-04-05 10:45:00,37.7,23.3,30.05,ENE,77,2.5,5.5,56,0.00,,,0.00,WUHU216HW,2013-04-05 15:45:00,
2013-04-05 10:50:00,37.9,24.4,30.05,East,90,4.2,5.3,58,0.00,,,0.00,WUHU216HW,2013-04-05 15:50:00,
2013-04-05 10:55:00,38.4,25.3,30.05,ENE,68,6.4,6.4,59,0.00,,,0.00,WUHU216HW,2013-04-05 15:55:00,
2013-04-05 11:00:00,38.8,24.3,30.05,NE,45,1.5,6.4,56,0.00,,,0.00,WUHU216HW,2013-04-05 16:00:00,
2013-04-05 11:05:00,38.8,24.3,30.05,NNE,23,1.4,1.5,56,0.00,,,0.00,WUHU216HW,2013-04-05 16:05:00,
2013-04-05 11:10:00,38.4,23.6,30.05,ENE,68,4.9,5.3,55,0.00,,,0.00,WUHU216HW,2013-04-05 16:10:00,
2013-04-05 11:16:00,38.8,24.3,30.05,East,90,7.3,8.0,56,0.00,,,0.00,WUHU216HW,2013-04-05 16:16:00,
2013-04-05 11:21:00,39.0,25.1,30.05,NNE,23,6.4,7.3,57,0.00,,,0.00,WUHU216HW,2013-04-05 16:21:00,
2013-04-05 11:26:00,39.5,25.4,30.04,East,99,3.8,6.4,57,0.00,,,0.00,WUHU216HW,2013-04-05 16:26:00,
2013-04-05 11:32:00,39.9,25.8,30.04,East,90,4.9,8.2,57,0.00,,,0.00,WUHU216HW,2013-04-05 16:32:00,
2013-04-05 11:37:00,40.1,25.3,30.04,ENE,77,3.8,8.2,56,0.00,,,0.00,WUHU216HW,2013-04-05 16:37:00,
2013-04-05 11:42:00,39.9,24.9,30.04,ENE,59,3.6,8.2,55,0.00,,,0.00,WUHU216HW,2013-04-05 16:42:00,
2013-04-05 11:47:00,39.7,24.7,30.04,East,90,4.4,8.2,55,0.00,,,0.00,WUHU216HW,2013-04-05 16:47:00,
2013-04-05 11:52:00,39.7,24.7,30.03,East,90,3.2,8.7,55,0.00,,,0.00,WUHU216HW,2013-04-05 16:52:00,
2013-04-05 11:57:00,39.9,25.3,30.03,East,90,4.3,8.7,56,0.00,,,0.00,WUHU216HW,2013-04-05 16:57:00,
2013-04-05 12:02:00,40.8,26.0,30.03,ESE,113,0.0,7.6,56,0.00,,,0.00,WUHU216HW,2013-04-05 17:02:00,
2013-04-05 12:07:00,40.8,25.3,30.03,ENE,68,2.6,7.6,54,0.00,,,0.00,WUHU216HW,2013-04-05 17:07:00,
2013-04-05 12:12:00,40.8,25.3,30.03,ESE,113,6.7,6.7,54,0.00,,,0.00,WUHU216HW,2013-04-05 17:12:00,
2013-04-05 12:17:00,41.0,25.9,30.03,ESE,113,4.6,6.7,55,0.00,,,0.00,WUHU216HW,2013-04-05 17:17:00,
2013-04-05 12:22:00,41.5,26.4,30.03,ESE,113,3.8,6.0,55,0.00,,,0.00,WUHU216HW,2013-04-05 17:22:00,
2013-04-05 12:27:00,41.7,26.2,30.03,NE,45,6.0,6.0,54,0.00,,,0.00,WUHU216HW,2013-04-05 17:27:00,
2013-04-05 12:32:00,41.7,25.7,30.03,East,90,8.2,8.2,53,0.00,,,0.00,WUHU216HW,2013-04-05 17:32:00,
2013-04-05 12:38:00,41.7,26.2,30.03,SE,135,0.0,8.2,54,0.00,,,0.00,WUHU216HW,2013-04-05 17:38:00,
2013-04-05 12:43:00,42.0,26.1,30.03,ESE,113,2.9,4.2,53,0.00,,,0.00,WUHU216HW,2013-04-05 17:43:00,
2013-04-05 12:48:00,42.4,26.4,30.02,SSE,158,0.0,4.2,53,0.00,,,0.00,WUHU216HW,2013-04-05 17:48:00,
2013-04-05 12:53:00,42.8,26.8,30.02,ESE,113,1.1,6.9,53,0.00,,,0.00,WUHU216HW,2013-04-05 17:53:00,
2013-04-05 12:58:00,43.3,27.3,30.02,East,90,5.3,6.9,53,0.00,,,0.00,WUHU216HW,2013-04-05 17:58:00,
2013-04-05 13:03:00,43.3,26.8,30.02,SSE,158,4.9,6.9,52,0.00,,,0.00,WUHU216HW,2013-04-05 18:03:00,
2013-04-05 13:08:00,43.5,26.6,30.02,SE,135,1.7,4.9,51,0.00,,,0.00,WUHU216HW,2013-04-05 18:08:00,
2013-04-05 13:13:00,43.3,26.0,30.02,ENE,68,4.2,6.0,50,0.00,,,0.00,WUHU216HW,2013-04-05 18:13:00,
2013-04-05 13:18:00,43.5,26.1,30.02,SSE,158,0.0,6.0,50,0.00,,,0.00,WUHU216HW,2013-04-05 18:18:00,
2013-04-05 13:24:00,43.3,26.4,30.02,East,90,0.0,6.4,51,0.00,,,0.00,WUHU216HW,2013-04-05 18:24:00,
2013-04-05 13:29:00,42.9,25.1,30.02,NE,55,3.8,6.4,49,0.00,,,0.00,WUHU216HW,2013-04-05 18:29:00,
2013-04-05 13:34:00,42.6,24.8,30.01,ENE,68,0.0,4.2,49,0.00,,,0.00,WUHU216HW,2013-04-05 18:34:00,
2013-04-05 13:39:00,43.1,25.8,30.01,NNE,23,0.0,2.9,50,0.00,,,0.00,WUHU216HW,2013-04-05 18:39:00,
2013-04-05 13:44:00,43.8,26.4,30.01,ESE,113,0.0,2.2,50,0.00,,,0.00,WUHU216HW,2013-04-05 18:44:00,
2013-04-05 13:49:00,44.0,25.5,30.01,NE,45,3.8,3.8,48,0.00,,,0.00,WUHU216HW,2013-04-05 18:49:00,
2013-04-05 13:54:00,43.8,25.4,30.01,ESE,113,5.8,5.8,48,0.00,,,0.00,WUHU216HW,2013-04-05 18:54:00,
2013-04-05 13:59:00,43.7,24.1,30.00,ENE,61,3.4,6.2,46,0.00,,,0.00,WUHU216HW,2013-04-05 18:59:00,
2013-04-05 14:05:00,43.7,24.7,30.01,NE,45,0.0,6.2,47,0.00,,,0.00,WUHU216HW,2013-04-05 19:05:00,
2013-04-05 14:10:00,44.7,26.2,30.01,ESE,113,0.0,1.5,48,0.00,,,0.00,WUHU216HW,2013-04-05 19:10:00,
2013-04-05 14:15:00,45.3,26.1,30.00,East,90,4.4,4.4,47,0.00,,,0.00,WUHU216HW,2013-04-05 19:15:00,
2013-04-05 14:20:00,45.3,26.1,30.00,ESE,113,0.0,4.6,47,0.00,,,0.00,WUHU216HW,2013-04-05 19:20:00,
2013-04-05 14:25:00,45.5,25.2,30.00,East,90,2.0,4.6,45,0.00,,,0.00,WUHU216HW,2013-04-05 19:25:00,
2013-04-05 14:30:00,45.5,26.3,29.99,SE,135,0.0,2.2,47,0.00,,,0.00,WUHU216HW,2013-04-05 19:30:00,
2013-04-05 14:35:00,45.6,25.9,30.00,ENE,68,2.0,2.2,46,0.00,,,0.00,WUHU216HW,2013-04-05 19:35:00,
2013-04-05 14:40:00,45.5,25.2,29.99,ESE,113,0.0,2.0,45,0.00,,,0.00,WUHU216HW,2013-04-05 19:40:00,
2013-04-05 14:45:00,45.6,25.4,29.99,ESE,113,1.3,1.3,45,0.00,,,0.00,WUHU216HW,2013-04-05 19:45:00,
2013-04-05 14:51:00,46.0,25.7,29.99,SE,135,2.9,2.9,45,0.00,,,0.00,WUHU216HW,2013-04-05 19:51:00,
2013-04-05 14:56:00,46.2,25.3,29.99,East,90,1.3,8.0,44,0.00,,,0.00,WUHU216HW,2013-04-05 19:56:00,
2013-04-05 15:01:00,46.0,25.7,29.99,SE,135,0.0,8.0,45,0.00,,,0.00,WUHU216HW,2013-04-05 20:01:00,
2013-04-05 15:06:00,46.5,26.2,29.99,NNE,23,0.0,5.8,44,0.00,,,0.00,WUHU216HW,2013-04-05 20:06:00,
2013-04-05 15:11:00,46.5,25.1,29.99,ENE,68,0.0,3.3,43,0.00,,,0.00,WUHU216HW,2013-04-05 20:11:00,
2013-04-05 15:17:00,46.9,25.4,29.99,ENE,68,0.0,0.0,43,0.00,,,0.00,WUHU216HW,2013-04-05 20:17:00,
2013-04-05 15:22:00,47.1,24.5,29.99,East,90,0.0,0.0,41,0.00,,,0.00,WUHU216HW,2013-04-05 20:22:00,
2013-04-05 15:27:00,47.6,25.5,29.98,SSE,158,2.4,4.0,42,0.00,,,0.00,WUHU216HW,2013-04-05 20:27:00,
2013-04-05 15:32:00,48.9,27.8,29.98,East,90,2.6,4.0,44,0.00,,,0.00,WUHU216HW,2013-04-05 20:32:00,
2013-04-05 15:37:00,48.7,25.4,29.98,ENE,68,0.0,6.4,41,0.00,,,0.00,WUHU216HW,2013-04-05 20:37:00,
2013-04-05 15:42:00,48.7,26.0,29.98,ENE,68,0.0,6.4,41,0.00,,,0.00,WUHU216HW,2013-04-05 20:42:00,
2013-04-05 15:47:00,49.1,25.7,29.98,SE,135,0.8,0.8,40,0.00,,,0.00,WUHU216HW,2013-04-05 20:47:00,
2013-04-05 15:52:00,49.6,27.3,29.98,ESE,113,0.0,6.4,42,0.00,,,0.00,WUHU216HW,2013-04-05 20:52:00,
2013-04-05 15:57:00,49.8,26.9,29.98,ESE,113,7.1,7.1,41,0.00,,,0.00,WUHU216HW,2013-04-05 20:57:00,
2013-04-05 16:02:00,49.6,26.2,29.98,ENE,68,3.1,7.1,40,0.00,,,0.00,WUHU216HW,2013-04-05 21:02:00,
2013-04-05 16:07:00,48.2,24.3,29.97,ESE,113,0.0,7.3,39,0.00,,,0.00,WUHU216HW,2013-04-05 21:07:00,
2013-04-05 16:12:00,48.0,24.8,29.97,ESE,113,0.0,7.3,40,0.00,,,0.00,WUHU216HW,2013-04-05 21:12:00,
2013-04-05 16:18:00,47.8,25.1,29.97,ENE,68,6.7,6.9,41,0.00,,,0.00,WUHU216HW,2013-04-05 21:18:00,
2013-04-05 16:23:00,46.5,23.5,29.97,NE,45,0.0,6.9,40,0.00,,,0.00,WUHU216HW,2013-04-05 21:23:00,
2013-04-05 16:28:00,46.2,23.3,29.97,NE,45,2.4,4.2,40,0.00,,,0.00,WUHU216HW,2013-04-05 21:28:00,
2013-04-05 16:33:00,46.2,23.7,29.98,East,90,4.6,5.3,41,0.00,,,0.00,WUHU216HW,2013-04-05 21:33:00,
2013-04-05 16:38:00,46.5,24.0,29.98,East,90,0.0,5.3,41,0.00,,,0.00,WUHU216HW,2013-04-05 21:38:00,
2013-04-05 16:43:00,46.0,23.0,29.98,East,90,0.0,1.1,40,0.00,,,0.00,WUHU216HW,2013-04-05 21:43:00,
2013-04-05 16:49:00,46.0,23.5,29.98,East,90,4.2,6.0,41,0.00,,,0.00,WUHU216HW,2013-04-05 21:49:00,
2013-04-05 16:54:00,45.6,23.2,29.98,East,90,0.0,6.0,41,0.00,,,0.00,WUHU216HW,2013-04-05 21:54:00,
2013-04-05 16:59:00,45.3,22.9,29.98,SE,135,4.4,5.1,41,0.00,,,0.00,WUHU216HW,2013-04-05 21:59:00,
2013-04-05 17:05:00,45.1,23.3,29.98,ESE,113,3.8,5.5,42,0.00,,,0.00,WUHU216HW,2013-04-05 22:05:00,
2013-04-05 17:10:00,45.1,22.7,29.98,East,90,5.8,5.8,41,0.00,,,0.00,WUHU216HW,2013-04-05 22:10:00,
2013-04-05 17:15:00,44.4,22.6,29.98,East,90,0.0,5.8,42,0.00,,,0.00,WUHU216HW,2013-04-05 22:15:00,
2013-04-05 17:20:00,43.8,22.1,29.98,NE,51,1.5,6.2,42,0.00,,,0.00,WUHU216HW,2013-04-05 22:20:00,
2013-04-05 17:25:00,43.5,21.8,29.98,NE,45,2.4,8.0,42,0.00,,,0.00,WUHU216HW,2013-04-05 22:25:00,
2013-04-05 17:30:00,43.3,22.2,29.98,East,90,4.7,8.0,43,0.00,,,0.00,WUHU216HW,2013-04-05 22:30:00,
2013-04-05 17:35:00,42.9,21.9,29.98,ESE,113,4.6,7.1,43,0.00,,,0.00,WUHU216HW,2013-04-05 22:35:00,
2013-04-05 17:40:00,42.9,22.4,29.98,East,84,2.0,6.9,44,0.00,,,0.00,WUHU216HW,2013-04-05 22:40:00,
2013-04-05 17:45:00,42.6,22.1,29.98,East,90,7.6,7.6,44,0.00,,,0.00,WUHU216HW,2013-04-05 22:45:00,
2013-04-05 17:50:00,42.0,22.1,29.98,East,90,4.6,7.6,45,0.00,,,0.00,WUHU216HW,2013-04-05 22:50:00,
2013-04-05 17:56:00,42.0,22.6,29.98,East,90,5.1,5.1,46,0.00,,,0.00,WUHU216HW,2013-04-05 22:56:00,
2013-04-05 18:01:00,41.9,22.4,29.97,East,95,1.7,5.8,46,0.00,,,0.00,WUHU216HW,2013-04-05 23:01:00,
2013-04-05 18:06:00,41.5,22.1,29.97,ENE,68,6.0,6.0,46,0.00,,,0.00,WUHU216HW,2013-04-05 23:06:00,
2013-04-05 18:11:00,41.1,22.4,29.97,ENE,68,4.9,6.0,47,0.00,,,0.00,WUHU216HW,2013-04-05 23:11:00,
2013-04-05 18:16:00,40.8,21.9,29.97,East,90,4.0,6.0,47,0.00,,,0.00,WUHU216HW,2013-04-05 23:16:00,
2013-04-05 18:21:00,40.6,22.3,29.97,East,90,2.4,4.0,48,0.00,,,0.00,WUHU216HW,2013-04-05 23:21:00,
2013-04-05 18:27:00,40.2,22.0,29.96,East,90,3.2,6.7,48,0.00,,,0.00,WUHU216HW,2013-04-05 23:27:00,
2013-04-05 18:32:00,39.9,22.2,29.96,ENE,68,5.3,6.9,49,0.00,,,0.00,WUHU216HW,2013-04-05 23:32:00,
2013-04-05 18:37:00,39.5,22.2,29.96,East,90,3.1,6.9,50,0.00,,,0.00,WUHU216HW,2013-04-05 23:37:00,
2013-04-05 18:42:00,39.0,21.4,29.96,East,90,7.1,7.1,49,0.00,,,0.00,WUHU216HW,2013-04-05 23:42:00,
2013-04-05 18:47:00,38.8,21.7,29.96,ENE,78,4.8,7.1,50,0.00,,,0.00,WUHU216HW,2013-04-05 23:47:00,
2013-04-05 18:52:00,38.6,22.0,29.96,East,90,3.8,6.2,51,0.00,,,0.00,WUHU216HW,2013-04-05 23:52:00,
2013-04-05 18:57:00,38.3,22.1,29.96,ENE,68,4.4,6.2,52,0.00,,,0.00,WUHU216HW,2013-04-05 23:57:00,
2013-04-05 19:02:00,38.1,21.9,29.96,East,90,5.3,5.3,53,0.00,,,0.00,WUHU216HW,2013-04-06 00:02:00,
2013-04-05 19:07:00,37.9,22.2,29.96,East,82,3.8,5.3,53,0.00,,,0.00,WUHU216HW,2013-04-06 00:07:00,
2013-04-05 19:12:00,37.9,22.2,29.95,East,90,1.3,6.7,53,0.00,,,0.00,WUHU216HW,2013-04-06 00:12:00,
2013-04-05 19:17:00,37.7,22.5,29.95,ENE,72,2.6,6.7,54,0.00,,,0.00,WUHU216HW,2013-04-06 00:17:00,
2013-04-05 19:22:00,37.5,22.3,29.95,East,90,3.2,4.2,54,0.00,,,0.00,WUHU216HW,2013-04-06 00:22:00,
2013-04-05 19:27:00,37.4,22.2,29.95,East,90,2.4,4.2,54,0.00,,,0.00,WUHU216HW,2013-04-06 00:27:00,
2013-04-05 19:32:00,37.2,22.0,29.95,East,90,3.8,6.2,54,0.00,,,0.00,WUHU216HW,2013-04-06 00:32:00,
2013-04-05 19:37:00,37.2,22.0,29.95,East,90,0.6,6.2,54,0.00,,,0.00,WUHU216HW,2013-04-06 00:37:00,
2013-04-05 19:42:00,37.0,21.8,29.95,ENE,68,0.0,5.5,54,0.00,,,0.00,WUHU216HW,2013-04-06 00:42:00,
2013-04-05 19:47:00,37.0,22.3,29.95,ENE,68,3.5,5.5,55,0.00,,,0.00,WUHU216HW,2013-04-06 00:47:00,
2013-04-05 19:53:00,36.8,22.5,29.95,East,98,4.8,6.4,56,0.00,,,0.00,WUHU216HW,2013-04-06 00:53:00,
2013-04-05 19:58:00,36.6,22.8,29.95,East,90,5.5,6.4,57,0.00,,,0.00,WUHU216HW,2013-04-06 00:58:00,
2013-04-05 20:03:00,36.6,23.2,29.95,East,90,3.5,5.5,58,0.00,,,0.00,WUHU216HW,2013-04-06 01:03:00,
2013-04-05 20:08:00,36.5,23.5,29.95,SE,135,7.3,10.7,59,0.00,,,0.00,WUHU216HW,2013-04-06 01:08:00,
2013-04-05 20:13:00,36.5,23.1,29.95,East,90,6.4,10.7,58,0.00,,,0.00,WUHU216HW,2013-04-06 01:13:00,
2013-04-05 20:18:00,36.3,23.3,29.94,East,90,4.9,8.5,59,0.00,,,0.00,WUHU216HW,2013-04-06 01:18:00,
2013-04-05 20:23:00,36.3,23.8,29.94,East,90,6.2,8.5,60,0.00,,,0.00,WUHU216HW,2013-04-06 01:23:00,
2013-04-05 20:28:00,36.3,24.1,29.94,ESE,115,4.2,7.1,61,0.00,,,0.00,WUHU216HW,2013-04-06 01:28:00,
2013-04-05 20:33:00,36.1,24.3,29.95,ESE,113,7.1,9.6,62,0.00,,,0.00,WUHU216HW,2013-04-06 01:33:00,
2013-04-05 20:38:00,36.1,25.1,29.94,ESE,113,6.6,9.6,64,0.00,,,0.00,WUHU216HW,2013-04-06 01:38:00,
2013-04-05 20:43:00,35.9,24.9,29.94,East,90,6.9,8.0,64,0.00,,,0.00,WUHU216HW,2013-04-06 01:43:00,
2013-04-05 20:49:00,35.7,24.7,29.94,SE,127,6.6,8.9,64,0.00,,,0.00,WUHU216HW,2013-04-06 01:49:00,
2013-04-05 20:54:00,35.7,25.1,29.94,ESE,113,6.3,8.9,65,0.00,,,0.00,WUHU216HW,2013-04-06 01:54:00,
2013-04-05 20:59:00,35.4,24.8,29.94,ESE,113,6.9,7.6,65,0.00,,,0.00,WUHU216HW,2013-04-06 01:59:00,
2013-04-05 21:04:00,35.4,25.1,29.95,ESE,121,5.2,8.2,66,0.00,,,0.00,WUHU216HW,2013-04-06 02:04:00,
2013-04-05 21:09:00,35.2,24.9,29.94,East,90,4.0,8.2,66,0.00,,,0.00,WUHU216HW,2013-04-06 02:09:00,
2013-04-05 21:14:00,35.0,24.8,29.95,East,90,5.9,7.1,66,0.00,,,0.00,WUHU216HW,2013-04-06 02:14:00,
2013-04-05 21:19:00,34.8,24.6,29.94,SE,125,4.4,8.2,66,0.00,,,0.00,WUHU216HW,2013-04-06 02:19:00,
2013-04-05 21:24:00,34.8,24.9,29.94,SE,135,10.9,10.9,67,0.00,,,0.00,WUHU216HW,2013-04-06 02:24:00,
2013-04-05 21:30:00,34.7,24.8,29.94,East,90,7.8,10.9,67,0.00,,,0.00,WUHU216HW,2013-04-06 02:30:00,
2013-04-05 21:35:00,34.5,24.6,29.95,ESE,111,5.8,7.8,67,0.00,,,0.00,WUHU216HW,2013-04-06 02:35:00,
2013-04-05 21:40:00,34.5,24.9,29.94,East,90,4.0,7.8,68,0.00,,,0.00,WUHU216HW,2013-04-06 02:40:00,
2013-04-05 21:45:00,34.3,24.8,29.95,SE,124,4.5,7.8,68,0.00,,,0.00,WUHU216HW,2013-04-06 02:45:00,
2013-04-05 21:50:00,34.3,24.8,29.94,ESE,122,2.8,7.6,68,0.00,,,0.00,WUHU216HW,2013-04-06 02:50:00,
2013-04-05 21:55:00,34.3,25.1,29.94,ESE,102,5.4,7.6,69,0.00,,,0.00,WUHU216HW,2013-04-06 02:55:00,
2013-04-05 22:00:00,34.3,25.1,29.94,SE,135,7.6,7.6,69,0.00,,,0.00,WUHU216HW,2013-04-06 03:00:00,
2013-04-05 22:05:00,34.1,24.9,29.94,SE,135,0.0,7.6,69,0.00,,,0.00,WUHU216HW,2013-04-06 03:05:00,
2013-04-05 22:11:00,33.9,24.8,29.94,East,90,0.0,4.0,69,0.00,,,0.00,WUHU216HW,2013-04-06 03:11:00,
2013-04-05 22:16:00,33.6,24.0,29.95,ESE,115,3.0,5.5,68,0.00,,,0.00,WUHU216HW,2013-04-06 03:16:00,
2013-04-05 22:21:00,33.6,24.0,29.95,ESE,118,4.1,6.2,68,0.00,,,0.00,WUHU216HW,2013-04-06 03:21:00,
2013-04-05 22:26:00,33.6,24.0,29.95,SE,135,1.5,6.2,68,0.00,,,0.00,WUHU216HW,2013-04-06 03:26:00,
2013-04-05 22:31:00,33.6,23.9,29.95,SE,135,0.0,1.5,68,0.00,,,0.00,WUHU216HW,2013-04-06 03:31:00,
2013-04-05 22:36:00,33.4,24.2,29.95,SE,135,0.0,3.8,69,0.00,,,0.00,WUHU216HW,2013-04-06 03:36:00,
2013-04-05 22:41:00,33.4,24.2,29.95,SE,135,4.6,4.6,69,0.00,,,0.00,WUHU216HW,2013-04-06 03:41:00,
2013-04-05 22:46:00,33.4,24.2,29.95,ESE,113,3.8,4.6,69,0.00,,,0.00,WUHU216HW,2013-04-06 03:46:00,
2013-04-05 22:51:00,33.2,24.1,29.95,SE,135,0.0,3.8,69,0.00,,,0.00,WUHU216HW,2013-04-06 03:51:00,
2013-04-05 22:57:00,33.2,24.1,29.95,SSE,158,2.8,5.1,69,0.00,,,0.00,WUHU216HW,2013-04-06 03:57:00,
2013-04-05 23:00:00,33.2,24.1,29.95,SSE,158,2.0,5.1,69,0.00,,,0.00,WUHU216HW,2013-04-06 04:00:00,
2013-04-05 23:02:00,33.2,24.1,29.95,SSE,158,5.1,5.1,69,0.00,,,0.00,WUHU216HW,2013-04-06 04:02:00,
2013-04-05 23:07:00,33.2,24.1,29.95,SE,135,0.0,5.1,69,0.00,,,0.00,WUHU216HW,2013-04-06 04:07:00,
2013-04-05 23:12:00,33.2,24.1,29.95,ESE,113,0.0,2.6,69,0.00,,,0.00,WUHU216HW,2013-04-06 04:12:00,
2013-04-05 23:17:00,33.2,24.1,29.95,SE,135,0.0,0.0,69,0.00,,,0.00,WUHU216HW,2013-04-06 04:17:00,
2013-04-05 23:22:00,33.0,23.9,29.95,SE,135,0.0,0.0,69,0.00,,,0.00,WUHU216HW,2013-04-06 04:22:00,
2013-04-05 23:27:00,33.0,23.9,29.95,SSE,158,0.0,0.0,69,0.00,,,0.00,WUHU216HW,2013-04-06 04:27:00,
2013-04-05 23:32:00,33.0,24.3,29.95,SSE,158,3.5,4.0,70,0.00,,,0.00,WUHU216HW,2013-04-06 04:32:00,
2013-04-05 23:37:00,32.9,24.1,29.96,SSE,158,5.6,8.2,70,0.00,,,0.00,WUHU216HW,2013-04-06 04:37:00,
2013-04-05 23:42:00,32.7,24.0,29.95,ESE,113,2.3,8.2,70,0.00,,,0.00,WUHU216HW,2013-04-06 04:42:00,
2013-04-05 23:47:00,32.5,24.1,29.96,SE,135,3.3,4.4,71,0.00,,,0.00,WUHU216HW,2013-04-06 04:47:00,
2013-04-05 23:53:00,32.1,24.1,29.96,SE,135,7.8,7.8,72,0.00,,,0.00,WUHU216HW,2013-04-06 04:53:00,
2013-04-05 23:58:00,31.8,23.8,29.95,ESE,121,4.3,7.8,72,0.00,,,0.00,WUHU216HW,2013-04-06 04:58:00,